Time;durP1;ratioP1;P1;durP2;ratioP2;P2;SDS_P1;SDS_P2;PMS_P1;PMS_P2;Temp;Humidity;BMP_temperature;BMP_pressure;BME280_temperature;BME280_humidity;BME280_pressure;Samples;Min_cycle;Max_cycle;Signal;HPM_P1;HPM_P2
2023/06/18 00:02:04;;;;;;;14.93;12.40;;;16.00;99.90;;;;;;5133771;27;20041;-64
2023/06/18 00:04:30;;;;;;;18.05;13.02;;;16.00;99.90;;;;;;5149488;27;20059;-63
2023/06/18 00:06:56;;;;;;;15.50;12.43;;;15.90;99.90;;;;;;5119835;27;20039;-64
2023/06/18 00:09:22;;;;;;;18.48;13.38;;;15.90;99.90;;;;;;5104483;27;20049;-64
2023/06/18 00:11:49;;;;;;;16.73;13.68;;;15.90;99.90;;;;;;5135610;27;20397;-64
2023/06/18 00:14:14;;;;;;;19.13;14.30;;;15.80;99.90;;;;;;5135440;27;20042;-63
2023/06/18 00:16:40;;;;;;;17.55;14.82;;;15.80;99.90;;;;;;5135441;27;20053;-63
2023/06/18 00:19:05;;;;;;;17.27;13.90;;;15.70;99.90;;;;;;5122532;27;20043;-64
2023/06/18 00:21:31;;;;;;;15.88;13.50;;;15.70;99.90;;;;;;5150730;27;20034;-64
2023/06/18 00:23:57;;;;;;;17.48;14.07;;;15.70;99.90;;;;;;5130621;27;20050;-63
2023/06/18 00:26:25;;;;;;;17.98;14.63;;;15.70;99.90;;;;;;5114627;27;20027;-64
2023/06/18 00:28:51;;;;;;;19.30;14.77;;;15.60;99.90;;;;;;5140996;27;20050;-64
2023/06/18 00:31:17;;;;;;;15.35;13.55;;;15.70;99.90;;;;;;5133737;27;20050;-65
2023/06/18 00:33:44;;;;;;;17.55;15.25;;;15.70;99.90;;;;;;5132881;27;20409;-63
2023/06/18 00:36:09;;;;;;;16.20;13.98;;;15.60;99.90;;;;;;5130886;27;20037;-63
2023/06/18 00:38:36;;;;;;;19.38;14.63;;;15.60;99.90;;;;;;5134423;27;20031;-63
2023/06/18 00:41:02;;;;;;;17.38;14.15;;;15.60;99.90;;;;;;5127919;27;20043;-64
2023/06/18 00:43:28;;;;;;;18.00;15.38;;;15.60;99.90;;;;;;5117335;27;20042;-64
2023/06/18 00:46:01;;;;;;;16.00;14.15;;;15.60;99.90;;;;;;5114217;27;20039;-64
2023/06/18 00:48:27;;;;;;;16.70;14.23;;;15.50;99.90;;;;;;5145991;27;20053;-63
2023/06/18 00:50:53;;;;;;;17.38;14.40;;;15.50;99.90;;;;;;5119580;27;20035;-63
2023/06/18 00:53:20;;;;;;;18.38;15.02;;;15.50;99.90;;;;;;5122658;27;20390;-63
2023/06/18 00:55:47;;;;;;;19.23;15.13;;;15.40;99.90;;;;;;5127855;27;20049;-61
2023/06/18 00:58:14;;;;;;;17.48;15.45;;;15.40;99.90;;;;;;5129876;27;20050;-62
2023/06/18 01:00:40;;;;;;;19.50;14.95;;;15.40;99.90;;;;;;5120402;27;20038;-63
2023/06/18 01:03:16;;;;;;;18.10;15.75;;;15.30;99.90;;;;;;5134078;27;20083;-64
2023/06/18 01:05:47;;;;;;;20.63;16.13;;;15.30;99.90;;;;;;5133827;27;20038;-63
2023/06/18 01:08:14;;;;;;;20.60;16.58;;;15.30;99.90;;;;;;5126942;27;20485;-64
2023/06/18 01:10:40;;;;;;;21.25;16.65;;;15.30;99.90;;;;;;5152844;27;20475;-63
2023/06/18 01:13:14;;;;;;;20.88;16.08;;;15.20;99.90;;;;;;5149693;27;20026;-64
2023/06/18 01:15:40;;;;;;;19.77;15.80;;;15.20;99.90;;;;;;5130920;27;20042;-61
2023/06/18 01:18:07;;;;;;;23.88;18.38;;;15.20;99.90;;;;;;5120644;27;20131;-61
2023/06/18 01:20:40;;;;;;;24.83;18.38;;;15.20;99.90;;;;;;5152846;27;20698;-62
2023/06/18 01:23:17;;;;;;;24.25;18.60;;;15.20;99.90;;;;;;5144360;27;20393;-61
2023/06/18 01:25:44;;;;;;;21.75;17.08;;;15.20;99.90;;;;;;5120567;27;20039;-62
2023/06/18 01:28:10;;;;;;;20.70;16.10;;;15.20;99.90;;;;;;5119785;27;20039;-62
2023/06/18 01:30:37;;;;;;;19.60;15.68;;;15.10;99.90;;;;;;5122239;27;20050;-61
2023/06/18 01:33:04;;;;;;;19.38;16.05;;;15.10;99.90;;;;;;5142104;27;20039;-62
2023/06/18 01:35:29;;;;;;;18.02;15.32;;;15.10;99.90;;;;;;5116348;27;20144;-62
2023/06/18 01:38:01;;;;;;;19.85;16.20;;;15.10;99.90;;;;;;5120105;27;20042;-62
2023/06/18 01:40:45;;;;;;;20.30;17.08;;;15.10;99.90;;;;;;5127548;27;20397;-62
2023/06/18 01:43:32;;;;;;;20.48;17.00;;;15.10;99.90;;;;;;5116818;27;20035;-62
2023/06/18 01:46:03;;;;;;;20.67;16.73;;;15.00;99.90;;;;;;5117077;27;20043;-61
2023/06/18 01:48:47;;;;;;;23.23;17.48;;;14.90;99.90;;;;;;5125163;27;20031;-62
2023/06/18 01:51:16;;;;;;;20.30;17.73;;;14.90;99.90;;;;;;5113041;27;20035;-62
2023/06/18 01:53:44;;;;;;;22.08;17.88;;;14.80;99.90;;;;;;5104268;27;20039;-61
2023/06/18 01:56:13;;;;;;;21.17;17.85;;;14.80;99.90;;;;;;5125939;27;20041;-62
2023/06/18 01:58:42;;;;;;;20.58;18.17;;;14.80;99.90;;;;;;5104737;27;20104;-61
2023/06/18 02:01:09;;;;;;;20.83;17.58;;;14.80;99.90;;;;;;5120039;27;20039;-61
2023/06/18 02:03:35;;;;;;;21.80;17.58;;;14.70;99.90;;;;;;5125536;27;20035;-61
2023/06/18 02:06:01;;;;;;;24.63;19.00;;;14.70;99.90;;;;;;5128296;27;20049;-61
2023/06/18 02:08:27;;;;;;;21.70;18.27;;;14.70;99.90;;;;;;5127953;27;20035;-61
2023/06/18 02:10:53;;;;;;;21.42;18.33;;;14.70;99.90;;;;;;5124839;27;20478;-61
2023/06/18 02:13:18;;;;;;;19.98;17.67;;;14.70;99.90;;;;;;5147962;27;20039;-61
2023/06/18 02:15:44;;;;;;;24.02;19.00;;;14.60;99.90;;;;;;5139741;27;20039;-61
2023/06/18 02:18:11;;;;;;;22.20;18.45;;;14.60;99.90;;;;;;5148552;27;20121;-63
2023/06/18 02:20:41;;;;;;;20.75;18.45;;;14.60;99.90;;;;;;5112652;27;20091;-62
2023/06/18 02:23:07;;;;;;;24.15;19.73;;;14.60;99.90;;;;;;5129935;27;20042;-62
2023/06/18 02:25:33;;;;;;;25.75;19.58;;;14.60;99.90;;;;;;5148773;27;20030;-61
2023/06/18 02:28:00;;;;;;;22.80;20.05;;;14.60;99.90;;;;;;5131440;27;20113;-62
2023/06/18 02:30:28;;;;;;;24.17;20.63;;;14.60;99.90;;;;;;5113097;27;20043;-62
2023/06/18 02:32:54;;;;;;;23.80;20.20;;;14.60;99.90;;;;;;5131672;27;20047;-62
2023/06/18 02:35:20;;;;;;;23.15;19.58;;;14.60;99.90;;;;;;5118474;27;20058;-62
2023/06/18 02:37:46;;;;;;;26.50;20.30;;;14.60;99.90;;;;;;5147376;27;20043;-62
2023/06/18 02:40:14;;;;;;;28.75;22.10;;;14.60;99.90;;;;;;5145955;27;20027;-63
2023/06/18 02:42:47;;;;;;;23.15;19.45;;;14.50;99.90;;;;;;5132567;27;20434;-62
2023/06/18 02:45:14;;;;;;;20.45;18.20;;;14.50;99.90;;;;;;5120732;27;20027;-62
2023/06/18 02:47:39;;;;;;;21.73;18.98;;;14.50;99.90;;;;;;5142661;27;20042;-61
2023/06/18 02:50:07;;;;;;;24.55;19.90;;;14.50;99.90;;;;;;5120991;28;20065;-61
2023/06/18 02:52:32;;;;;;;23.75;19.83;;;14.50;99.90;;;;;;5114037;27;20122;-63
2023/06/18 02:54:58;;;;;;;24.95;20.33;;;14.50;99.90;;;;;;5116059;27;20122;-62
2023/06/18 02:57:23;;;;;;;24.67;21.45;;;14.50;99.90;;;;;;5120550;27;20082;-61
2023/06/18 02:59:49;;;;;;;22.98;20.52;;;14.50;99.90;;;;;;5117179;27;20045;-62
2023/06/18 03:02:15;;;;;;;23.70;19.98;;;14.50;99.90;;;;;;5131737;27;20034;-62
2023/06/18 03:04:40;;;;;;;23.90;19.50;;;14.40;99.90;;;;;;5133947;27;20039;-61
2023/06/18 03:07:06;;;;;;;23.42;18.77;;;14.40;99.90;;;;;;5136616;27;20033;-61
2023/06/18 03:09:32;;;;;;;24.05;21.45;;;14.40;99.90;;;;;;5145968;27;20039;-61
2023/06/18 03:11:57;;;;;;;25.60;19.95;;;14.40;99.90;;;;;;5130494;27;20034;-62
2023/06/18 03:14:24;;;;;;;21.67;19.02;;;14.40;99.90;;;;;;5134472;27;20047;-62
2023/06/18 03:16:50;;;;;;;24.48;20.92;;;14.40;99.90;;;;;;5133643;27;20074;-63
2023/06/18 03:19:15;;;;;;;26.30;21.08;;;14.40;99.90;;;;;;5114041;27;20093;-62
2023/06/18 03:21:42;;;;;;;28.77;21.23;;;14.40;99.90;;;;;;5122897;27;20035;-62
2023/06/18 03:24:08;;;;;;;25.90;21.10;;;14.50;99.90;;;;;;5152624;27;20087;-61
2023/06/18 03:26:36;;;;;;;26.52;21.88;;;14.50;99.90;;;;;;5134599;27;20030;-61
2023/06/18 03:29:02;;;;;;;24.83;20.85;;;14.50;99.90;;;;;;5118644;27;20047;-61
2023/06/18 03:31:28;;;;;;;26.90;21.17;;;14.60;99.90;;;;;;5135532;27;20042;-62
2023/06/18 03:33:54;;;;;;;28.67;22.23;;;14.60;99.90;;;;;;5130387;27;20031;-62
2023/06/18 03:36:19;;;;;;;25.95;21.80;;;14.70;99.90;;;;;;5125417;27;20042;-62
2023/06/18 03:38:48;;;;;;;26.77;21.67;;;14.70;99.90;;;;;;5153645;27;20078;-61
2023/06/18 03:41:14;;;;;;;27.98;21.17;;;14.80;99.90;;;;;;5122952;27;20062;-61
2023/06/18 03:43:39;;;;;;;27.80;22.23;;;14.90;99.90;;;;;;5127482;27;20378;-61
2023/06/18 03:46:05;;;;;;;32.58;23.88;;;14.90;99.90;;;;;;5140427;27;20083;-62
2023/06/18 03:48:32;;;;;;;28.25;21.55;;;15.00;99.90;;;;;;5129495;27;20529;-61
2023/06/18 03:50:57;;;;;;;27.85;22.23;;;15.10;99.90;;;;;;5125135;27;20054;-62
2023/06/18 03:53:23;;;;;;;29.45;22.60;;;15.10;99.90;;;;;;5125291;27;20054;-63
2023/06/18 03:55:49;;;;;;;29.45;23.05;;;15.20;99.90;;;;;;5128374;27;20503;-62
2023/06/18 03:58:16;;;;;;;26.13;21.08;;;15.20;99.90;;;;;;5146238;27;20034;-62
2023/06/18 04:00:42;;;;;;;28.20;21.30;;;15.30;99.90;;;;;;5143595;27;20151;-62
2023/06/18 04:03:08;;;;;;;28.98;22.67;;;15.30;99.90;;;;;;5144332;27;20035;-62
2023/06/18 04:05:33;;;;;;;26.60;22.35;;;15.40;99.90;;;;;;5125147;27;20036;-62
2023/06/18 04:07:59;;;;;;;28.63;23.08;;;15.40;99.90;;;;;;5140031;27;20085;-61
2023/06/18 04:10:24;;;;;;;29.83;22.75;;;15.50;99.90;;;;;;5120556;27;20478;-61
2023/06/18 04:12:50;;;;;;;25.38;21.48;;;15.50;99.90;;;;;;5145716;27;20039;-62
2023/06/18 04:15:16;;;;;;;27.35;20.45;;;15.60;99.90;;;;;;5125131;27;20459;-61
2023/06/18 04:17:42;;;;;;;26.25;21.45;;;15.60;99.90;;;;;;5124155;27;20393;-61
2023/06/18 04:20:08;;;;;;;29.05;22.10;;;15.70;99.90;;;;;;5123869;27;20083;-62
2023/06/18 04:22:34;;;;;;;28.67;21.35;;;15.80;99.90;;;;;;5131056;27;20104;-62
2023/06/18 04:25:00;;;;;;;29.85;23.00;;;15.80;99.90;;;;;;5145162;27;20042;-62
2023/06/18 04:27:26;;;;;;;28.80;21.65;;;15.80;99.90;;;;;;5127004;27;20091;-62
2023/06/18 04:29:51;;;;;;;30.02;22.42;;;15.80;99.90;;;;;;5123721;27;20045;-62
2023/06/18 04:32:17;;;;;;;28.67;22.02;;;15.80;99.90;;;;;;5141510;27;20110;-62
2023/06/18 04:34:43;;;;;;;32.45;23.83;;;15.80;99.90;;;;;;5126742;27;20050;-61
2023/06/18 04:37:08;;;;;;;29.73;22.85;;;15.80;99.90;;;;;;5128759;27;20103;-62
2023/06/18 04:39:34;;;;;;;29.67;22.27;;;15.80;99.90;;;;;;5124100;27;20051;-62
2023/06/18 04:42:00;;;;;;;32.42;23.10;;;15.90;99.90;;;;;;5122303;27;20047;-63
2023/06/18 04:44:26;;;;;;;28.15;22.23;;;15.90;99.90;;;;;;5122281;27;20077;-62
2023/06/18 04:46:52;;;;;;;28.05;21.95;;;15.90;99.90;;;;;;5123402;27;20034;-61
2023/06/18 04:49:18;;;;;;;31.77;23.27;;;16.00;99.90;;;;;;5114841;27;20047;-61
2023/06/18 04:51:44;;;;;;;29.40;22.70;;;16.00;99.90;;;;;;5122500;27;20054;-61
2023/06/18 04:54:11;;;;;;;32.45;24.88;;;16.10;99.90;;;;;;5139534;27;20047;-60
2023/06/18 04:56:36;;;;;;;29.42;23.52;;;16.10;99.90;;;;;;5117458;27;20031;-61
2023/06/18 04:59:02;;;;;;;31.08;23.00;;;16.20;99.90;;;;;;5147085;27;20023;-61
2023/06/18 05:01:28;;;;;;;30.17;23.85;;;16.20;99.90;;;;;;5147521;27;20027;-62
2023/06/18 05:03:54;;;;;;;29.35;24.55;;;16.30;99.90;;;;;;5125409;27;20051;-62
2023/06/18 05:06:19;;;;;;;29.42;24.23;;;16.40;99.90;;;;;;5125973;27;20400;-61
2023/06/18 05:08:46;;;;;;;29.67;23.30;;;16.40;99.90;;;;;;5116253;27;20105;-61
2023/06/18 05:11:12;;;;;;;30.60;23.25;;;16.50;99.90;;;;;;5124647;27;20035;-62
2023/06/18 05:13:38;;;;;;;29.23;24.67;;;16.60;99.90;;;;;;5104128;27;20066;-62
2023/06/18 05:16:04;;;;;;;31.45;23.30;;;16.70;99.90;;;;;;5124677;27;20562;-62
2023/06/18 05:18:30;;;;;;;29.35;23.65;;;16.80;99.90;;;;;;5125664;27;20041;-64
2023/06/18 05:20:56;;;;;;;28.42;22.50;;;16.90;99.90;;;;;;5139167;27;20038;-63
2023/06/18 05:23:21;;;;;;;29.85;22.67;;;17.10;99.90;;;;;;5142302;27;20035;-64
2023/06/18 05:25:47;;;;;;;31.15;24.70;;;17.20;99.90;;;;;;5131772;27;20051;-63
2023/06/18 05:28:12;;;;;;;32.22;24.58;;;17.20;99.90;;;;;;5126548;27;20401;-63
2023/06/18 05:30:38;;;;;;;30.52;24.45;;;17.30;99.90;;;;;;5126535;27;20504;-62
2023/06/18 05:33:04;;;;;;;32.40;25.65;;;17.20;99.90;;;;;;5126538;27;20123;-63
2023/06/18 05:35:29;;;;;;;32.35;24.30;;;17.30;99.90;;;;;;5124396;27;20038;-63
2023/06/18 05:37:55;;;;;;;28.90;23.52;;;17.20;99.90;;;;;;5126685;27;20385;-61
2023/06/18 05:40:20;;;;;;;32.42;25.20;;;17.10;99.90;;;;;;5118645;27;20043;-62
2023/06/18 05:42:46;;;;;;;31.50;24.92;;;17.10;99.90;;;;;;5136828;27;20047;-61
2023/06/18 05:45:12;;;;;;;31.70;23.85;;;17.10;99.90;;;;;;5114171;27;20067;-63
2023/06/18 05:47:37;;;;;;;32.15;22.63;;;17.10;99.90;;;;;;5119097;27;20062;-62
2023/06/18 05:50:03;;;;;;;28.15;22.77;;;17.10;99.90;;;;;;5127286;27;20047;-63
2023/06/18 05:52:29;;;;;;;31.80;25.63;;;17.10;99.90;;;;;;5123761;27;20074;-64
2023/06/18 05:54:55;;;;;;;32.28;23.63;;;17.20;99.90;;;;;;5113111;27;20042;-63
2023/06/18 05:57:20;;;;;;;27.88;22.23;;;17.20;99.90;;;;;;5113397;27;20053;-62
2023/06/18 05:59:48;;;;;;;31.38;24.63;;;17.20;99.90;;;;;;5113007;27;20035;-63
2023/06/18 06:02:13;;;;;;;31.15;24.08;;;17.20;99.90;;;;;;5118511;27;20030;-63
2023/06/18 06:04:39;;;;;;;31.23;23.85;;;17.30;99.90;;;;;;5133486;27;20031;-62
2023/06/18 06:07:05;;;;;;;29.15;22.52;;;17.30;99.90;;;;;;5114720;27;20050;-63
2023/06/18 06:09:31;;;;;;;33.53;25.45;;;17.40;99.90;;;;;;5112960;27;20456;-62
2023/06/18 06:11:56;;;;;;;33.22;24.23;;;17.40;99.90;;;;;;5114438;27;20397;-62
2023/06/18 06:14:22;;;;;;;30.02;22.92;;;17.50;99.90;;;;;;5113024;27;20095;-63
2023/06/18 06:16:50;;;;;;;31.70;24.88;;;17.50;99.90;;;;;;5128727;27;20070;-63
2023/06/18 06:19:16;;;;;;;30.33;24.40;;;17.50;99.90;;;;;;5133311;27;20051;-63
2023/06/18 06:21:41;;;;;;;33.08;23.33;;;17.50;99.90;;;;;;5132316;27;20035;-63
2023/06/18 06:24:07;;;;;;;34.40;24.75;;;17.60;99.90;;;;;;5120153;27;20172;-62
2023/06/18 06:26:33;;;;;;;28.05;23.27;;;17.70;99.90;;;;;;5151791;27;20035;-62
2023/06/18 06:28:58;;;;;;;32.53;24.23;;;17.80;99.90;;;;;;5152763;27;20030;-62
2023/06/18 06:31:24;;;;;;;30.02;23.17;;;17.90;99.90;;;;;;5137480;27;20037;-63
2023/06/18 06:33:51;;;;;;;32.17;23.98;;;18.20;99.90;;;;;;5124999;27;20046;-62
2023/06/18 06:36:16;;;;;;;31.23;23.38;;;18.50;99.90;;;;;;5121571;27;20045;-63
2023/06/18 06:38:42;;;;;;;29.98;23.90;;;18.70;99.90;;;;;;5137279;27;20035;-62
2023/06/18 06:41:07;;;;;;;31.55;22.15;;;19.00;99.90;;;;;;5136367;27;20042;-63
2023/06/18 06:43:33;;;;;;;29.88;23.33;;;19.20;99.90;;;;;;5123145;27;20037;-62
2023/06/18 06:45:59;;;;;;;31.13;22.00;;;19.50;99.90;;;;;;5132294;27;20528;-63
2023/06/18 06:48:24;;;;;;;26.75;21.10;;;19.80;99.90;;;;;;5137045;27;20086;-63
2023/06/18 06:50:50;;;;;;;27.67;21.40;;;20.10;99.90;;;;;;5126470;27;20050;-63
2023/06/18 06:53:15;;;;;;;27.05;20.70;;;20.20;99.90;;;;;;5143448;27;20705;-62
2023/06/18 06:55:41;;;;;;;26.67;19.65;;;20.30;99.90;;;;;;5144976;27;20034;-62
2023/06/18 06:58:07;;;;;;;23.25;19.35;;;20.30;99.90;;;;;;5123556;27;20042;-62
2023/06/18 07:00:32;;;;;;;26.80;20.20;;;20.30;99.90;;;;;;5123615;27;20047;-62
2023/06/18 07:02:58;;;;;;;23.55;18.60;;;20.30;99.90;;;;;;5126579;27;20045;-62
2023/06/18 07:05:24;;;;;;;25.85;19.02;;;20.30;99.90;;;;;;5122514;27;20035;-64
2023/06/18 07:07:50;;;;;;;27.20;19.17;;;20.50;99.90;;;;;;5134129;27;20049;-63
2023/06/18 07:10:15;;;;;;;23.85;18.80;;;20.60;99.90;;;;;;5128543;27;20034;-63
2023/06/18 07:12:41;;;;;;;25.10;18.27;;;20.80;99.90;;;;;;5134438;27;20122;-63
2023/06/18 07:15:07;;;;;;;21.52;17.40;;;20.90;99.90;;;;;;5125768;27;20574;-62
2023/06/18 07:17:33;;;;;;;24.42;17.50;;;21.00;99.90;;;;;;5121500;27;20035;-62
2023/06/18 07:19:58;;;;;;;19.77;17.13;;;21.30;99.90;;;;;;5132051;27;20083;-62
2023/06/18 07:22:24;;;;;;;23.17;17.67;;;21.60;99.90;;;;;;5125397;27;20367;-63
2023/06/18 07:24:50;;;;;;;22.05;17.67;;;21.90;99.90;;;;;;5124193;27;20034;-63
2023/06/18 07:27:16;;;;;;;20.48;16.52;;;22.10;99.90;;;;;;5122741;27;20050;-62
2023/06/18 07:29:41;;;;;;;21.55;17.10;;;22.20;99.90;;;;;;5125538;27;20038;-62
2023/06/18 07:32:07;;;;;;;20.88;17.77;;;22.20;99.90;;;;;;5119259;27;20195;-63
2023/06/18 07:34:33;;;;;;;21.48;16.95;;;22.10;99.90;;;;;;5118676;27;20564;-63
2023/06/18 07:36:58;;;;;;;22.42;16.55;;;22.10;99.90;;;;;;5116127;27;20035;-63
2023/06/18 07:39:26;;;;;;;23.60;16.13;;;22.10;99.90;;;;;;5124594;27;20042;-63
2023/06/18 07:41:51;;;;;;;19.83;15.15;;;22.10;99.90;;;;;;5116312;27;20023;-64
2023/06/18 07:44:17;;;;;;;20.13;16.20;;;22.10;99.90;;;;;;5126045;27;20474;-63
2023/06/18 07:46:43;;;;;;;23.05;16.20;;;22.20;99.90;;;;;;5121783;27;20041;-64
2023/06/18 07:49:09;;;;;;;18.27;15.07;;;22.30;99.90;;;;;;5130227;27;20043;-63
2023/06/18 07:51:35;;;;;;;18.60;14.63;;;22.40;99.90;;;;;;5133647;27;20221;-63
2023/06/18 07:54:01;;;;;;;17.40;14.43;;;22.40;99.90;;;;;;5131512;27;20130;-62
2023/06/18 07:56:27;;;;;;;22.58;15.32;;;22.50;99.90;;;;;;5115369;27;20038;-63
2023/06/18 07:58:53;;;;;;;16.73;13.80;;;22.50;99.90;;;;;;5114963;27;20042;-62
2023/06/18 08:01:19;;;;;;;17.60;13.85;;;22.60;99.90;;;;;;5114599;27;20094;-63
2023/06/18 08:03:45;;;;;;;16.40;13.27;;;22.60;99.90;;;;;;5117752;27;20109;-63
2023/06/18 08:06:10;;;;;;;19.05;12.95;;;22.70;99.90;;;;;;5127171;27;20054;-63
2023/06/18 08:08:36;;;;;;;18.70;12.60;;;22.80;99.90;;;;;;5148243;27;20027;-62
2023/06/18 08:11:01;;;;;;;16.50;13.18;;;23.00;99.90;;;;;;5147392;27;20045;-63
2023/06/18 08:13:27;;;;;;;15.15;13.02;;;23.10;99.90;;;;;;5119345;27;20377;-63
2023/06/18 08:15:53;;;;;;;14.20;12.10;;;23.30;99.90;;;;;;5128188;27;20500;-63
2023/06/18 08:18:18;;;;;;;13.60;11.80;;;23.40;99.90;;;;;;5143652;27;20074;-63
2023/06/18 08:20:44;;;;;;;13.85;11.15;;;23.50;99.90;;;;;;5125452;27;20051;-63
2023/06/18 08:23:10;;;;;;;12.48;11.18;;;23.60;99.90;;;;;;5115891;27;20134;-63
2023/06/18 08:25:36;;;;;;;12.88;11.48;;;23.70;99.90;;;;;;5125602;27;20063;-62
2023/06/18 08:28:01;;;;;;;13.07;10.40;;;23.70;99.90;;;;;;5123822;27;20397;-62
2023/06/18 08:30:27;;;;;;;13.50;10.70;;;23.80;99.90;;;;;;5129128;27;20508;-63
2023/06/18 08:32:56;;;;;;;12.73;9.82;;;23.90;99.90;;;;;;5151268;27;20396;-63
2023/06/18 08:35:22;;;;;;;13.73;9.82;;;24.10;99.90;;;;;;5116985;27;20066;-63
2023/06/18 08:37:48;;;;;;;10.43;9.32;;;24.30;99.90;;;;;;5125451;27;20090;-62
2023/06/18 08:40:14;;;;;;;9.45;8.45;;;24.40;99.90;;;;;;5130077;27;20042;-63
2023/06/18 08:42:40;;;;;;;8.60;7.47;;;24.40;98.70;;;;;;5123398;27;20050;-63
2023/06/18 08:45:06;;;;;;;9.77;7.22;;;24.50;98.00;;;;;;5122933;27;20046;-64
2023/06/18 08:47:33;;;;;;;8.07;7.22;;;24.60;97.40;;;;;;5125982;27;20043;-63
2023/06/18 08:49:59;;;;;;;10.95;7.57;;;24.80;96.50;;;;;;5123507;27;20075;-63
2023/06/18 08:52:30;;;;;;;8.05;7.25;;;24.80;95.70;;;;;;5143771;27;20433;-63
2023/06/18 08:55:01;;;;;;;10.07;7.63;;;24.90;95.50;;;;;;5123945;27;20052;-63
2023/06/18 08:57:30;;;;;;;10.33;7.50;;;25.00;94.90;;;;;;5128181;27;20057;-62
2023/06/18 08:59:59;;;;;;;8.93;7.47;;;25.00;94.80;;;;;;5120975;27;20454;-62
2023/06/18 09:02:26;;;;;;;8.57;6.47;;;25.10;94.40;;;;;;5109700;27;20043;-63
2023/06/18 09:04:53;;;;;;;7.70;6.75;;;25.20;93.80;;;;;;5141413;27;20401;-64
2023/06/18 09:07:20;;;;;;;7.53;6.82;;;25.50;92.80;;;;;;5132725;27;20109;-63
2023/06/18 09:09:46;;;;;;;10.18;7.20;;;25.90;92.20;;;;;;5116703;27;20039;-62
2023/06/18 09:12:11;;;;;;;7.03;6.28;;;26.10;91.20;;;;;;5132268;27;20038;-63
2023/06/18 09:14:37;;;;;;;9.43;5.85;;;26.10;90.80;;;;;;5133211;27;20070;-63
2023/06/18 09:17:03;;;;;;;9.18;6.50;;;26.10;90.80;;;;;;5124212;27;20412;-63
2023/06/18 09:19:30;;;;;;;9.90;6.95;;;26.10;90.60;;;;;;5114384;27;20039;-63
2023/06/18 09:21:56;;;;;;;7.88;7.07;;;26.00;89.40;;;;;;5122071;27;20113;-63
2023/06/18 09:24:22;;;;;;;9.20;7.28;;;25.80;89.40;;;;;;5133224;27;20500;-62
2023/06/18 09:26:59;;;;;;;10.77;7.13;;;25.80;90.00;;;;;;5113260;27;20043;-63
2023/06/18 09:29:28;;;;;;;6.90;6.00;;;25.80;90.40;;;;;;5130704;27;20111;-63
2023/06/18 09:31:54;;;;;;;9.00;6.63;;;25.80;90.00;;;;;;5107385;27;20042;-62
2023/06/18 09:34:20;;;;;;;10.52;6.78;;;25.80;90.10;;;;;;5151730;27;20045;-63
2023/06/18 09:36:49;;;;;;;9.30;6.53;;;25.90;88.90;;;;;;5122498;27;20142;-64
2023/06/18 09:39:18;;;;;;;8.68;7.53;;;26.00;88.50;;;;;;5122439;27;20501;-63
2023/06/18 09:41:45;;;;;;;9.27;6.40;;;26.20;88.80;;;;;;5132240;27;20054;-63
2023/06/18 09:44:15;;;;;;;7.10;6.40;;;26.30;89.60;;;;;;5127306;27;20121;-63
2023/06/18 09:46:46;;;;;;;8.35;7.18;;;26.50;89.20;;;;;;5117880;27;20035;-62
2023/06/18 09:49:13;;;;;;;8.48;7.47;;;26.70;88.60;;;;;;5121348;27;20118;-63
2023/06/18 09:51:43;;;;;;;7.38;6.63;;;26.90;88.10;;;;;;5129969;27;20453;-62
2023/06/18 09:54:09;;;;;;;9.35;6.97;;;27.00;87.20;;;;;;5150340;27;20034;-62
2023/06/18 09:56:37;;;;;;;9.70;7.05;;;27.20;88.20;;;;;;5123724;27;20030;-63
2023/06/18 09:59:03;;;;;;;8.80;7.10;;;27.50;88.10;;;;;;5132742;27;20537;-63
2023/06/18 10:01:46;;;;;;;12.52;7.03;;;27.90;87.20;;;;;;5124197;27;20035;-63
2023/06/18 10:04:12;;;;;;;8.27;6.43;;;28.00;83.40;;;;;;5147589;27;20121;-62
2023/06/18 10:06:40;;;;;;;8.10;6.82;;;28.10;84.20;;;;;;5131157;27;20610;-63
2023/06/18 10:09:08;;;;;;;9.90;6.45;;;28.10;83.30;;;;;;5131803;27;20092;-63
2023/06/18 10:11:36;;;;;;;10.00;6.82;;;28.00;81.70;;;;;;5149649;27;20085;-64
2023/06/18 10:14:13;;;;;;;11.02;6.50;;;27.90;81.30;;;;;;5132712;27;20113;-63
2023/06/18 10:16:47;;;;;;;9.63;6.22;;;27.70;80.70;;;;;;5121958;27;20027;-62
2023/06/18 10:19:36;;;;;;;10.07;6.32;;;27.50;80.50;;;;;;5129977;27;20030;-63
2023/06/18 10:22:06;;;;;;;7.30;6.28;;;27.40;81.10;;;;;;5146530;27;20062;-62
2023/06/18 10:25:02;;;;;;;6.97;5.63;;;27.30;80.70;;;;;;5120748;27;20042;-63
2023/06/18 10:27:29;;;;;;;6.30;5.70;;;27.10;81.90;;;;;;5114919;27;20050;-63
2023/06/18 10:29:57;;;;;;;7.65;6.10;;;27.00;80.00;;;;;;5123287;27;20130;-62
2023/06/18 10:32:23;;;;;;;9.02;6.47;;;26.90;80.70;;;;;;5116551;27;20030;-63
2023/06/18 10:34:50;;;;;;;7.80;6.57;;;26.80;80.90;;;;;;5127635;27;20050;-62
2023/06/18 10:37:17;;;;;;;7.70;6.38;;;26.80;81.80;;;;;;5147840;27;20037;-62
2023/06/18 10:39:43;;;;;;;8.25;6.72;;;26.80;81.50;;;;;;5117492;27;20047;-62
2023/06/18 10:42:13;;;;;;;9.15;6.88;;;26.90;80.90;;;;;;5117398;27;20037;-63
2023/06/18 10:45:00;;;;;;;7.45;6.50;;;26.90;81.50;;;;;;5129965;27;20039;-62
2023/06/18 10:47:31;;;;;;;8.80;6.60;;;26.90;81.70;;;;;;5135182;27;20027;-64
2023/06/18 10:50:03;;;;;;;8.70;6.90;;;27.00;82.30;;;;;;5128351;27;20042;-62
2023/06/18 10:52:43;;;;;;;7.63;6.80;;;27.10;81.70;;;;;;5131474;27;20610;-62
2023/06/18 10:55:13;;;;;;;8.02;6.30;;;27.10;80.80;;;;;;5146528;27;20073;-62
2023/06/18 10:57:44;;;;;;;9.00;6.97;;;27.20;81.70;;;;;;5148218;27;20430;-62
2023/06/18 11:00:17;;;;;;;7.63;6.15;;;27.40;80.80;;;;;;5121044;27;20043;-63
2023/06/18 11:02:45;;;;;;;6.97;6.28;;;27.60;78.70;;;;;;5112029;27;20062;-62
2023/06/18 11:05:16;;;;;;;7.63;6.82;;;27.70;79.50;;;;;;5116571;27;20078;-63
2023/06/18 11:07:42;;;;;;;6.93;5.90;;;27.70;78.40;;;;;;5131311;27;20039;-62
2023/06/18 11:10:08;;;;;;;7.50;6.32;;;27.80;78.90;;;;;;5117548;27;20338;-62
2023/06/18 11:12:39;;;;;;;6.85;6.10;;;27.80;79.00;;;;;;5139987;27;20484;-63
2023/06/18 11:15:18;;;;;;;7.95;6.07;;;28.00;79.80;;;;;;5119692;27;20035;-63
2023/06/18 11:17:48;;;;;;;6.68;5.97;;;28.10;76.60;;;;;;5127301;27;20075;-64
2023/06/18 11:20:15;;;;;;;8.13;6.40;;;28.20;75.90;;;;;;5129757;27;20045;-63
2023/06/18 11:22:41;;;;;;;7.35;6.28;;;28.20;76.10;;;;;;5135798;27;20099;-63
2023/06/18 11:25:09;;;;;;;6.78;6.13;;;28.30;77.10;;;;;;5116429;27;20070;-62
2023/06/18 11:27:38;;;;;;;8.38;5.97;;;28.30;75.30;;;;;;5134360;27;20098;-63
2023/06/18 11:30:05;;;;;;;6.78;6.07;;;28.40;75.30;;;;;;5151613;27;20062;-63
2023/06/18 11:32:31;;;;;;;6.32;5.70;;;28.50;75.30;;;;;;5100663;27;20442;-63
2023/06/18 11:34:57;;;;;;;9.98;5.57;;;28.40;74.30;;;;;;5115237;27;20034;-62
2023/06/18 11:37:27;;;;;;;6.53;5.65;;;28.50;74.80;;;;;;5121499;27;20043;-62
2023/06/18 11:39:53;;;;;;;7.28;5.10;;;28.60;73.90;;;;;;5117602;27;20400;-64
2023/06/18 11:42:21;;;;;;;7.45;5.40;;;28.50;72.30;;;;;;5132837;27;20035;-64
2023/06/18 11:44:53;;;;;;;7.22;5.07;;;28.50;71.50;;;;;;5114310;27;20050;-63
2023/06/18 11:47:19;;;;;;;7.57;4.70;;;28.50;70.00;;;;;;5116862;27;20046;-64
2023/06/18 11:49:51;;;;;;;6.30;5.13;;;28.40;69.20;;;;;;5105417;27;20475;-64
2023/06/18 11:52:24;;;;;;;7.47;5.45;;;28.40;69.40;;;;;;5115910;27;20138;-64
2023/06/18 11:54:51;;;;;;;8.85;5.70;;;28.40;69.50;;;;;;5130812;27;20057;-64
2023/06/18 11:57:18;;;;;;;8.35;5.43;;;28.60;70.20;;;;;;5126871;27;20482;-63
2023/06/18 11:59:46;;;;;;;6.90;6.07;;;28.60;69.80;;;;;;5124237;27;20047;-63
2023/06/18 12:02:13;;;;;;;5.85;5.35;;;28.50;69.20;;;;;;5119269;27;20032;-63
2023/06/18 12:04:40;;;;;;;8.38;5.97;;;28.70;70.10;;;;;;5116721;27;20042;-63
2023/06/18 12:07:06;;;;;;;6.50;5.82;;;28.80;69.90;;;;;;5135406;27;20043;-63
2023/06/18 12:09:33;;;;;;;9.63;6.28;;;28.90;70.80;;;;;;5124407;27;20057;-63
2023/06/18 12:12:08;;;;;;;8.20;6.40;;;28.80;69.90;;;;;;5124550;27;20046;-64
2023/06/18 12:14:43;;;;;;;9.68;6.22;;;28.80;71.00;;;;;;5136206;27;20031;-63
2023/06/18 12:17:18;;;;;;;12.20;6.40;;;28.80;71.10;;;;;;5099530;27;20458;-63
2023/06/18 12:19:52;;;;;;;8.88;7.05;;;28.80;71.40;;;;;;5124192;27;20270;-64
2023/06/18 12:22:18;;;;;;;9.43;6.78;;;28.70;71.30;;;;;;5132697;27;20425;-64
2023/06/18 12:24:44;;;;;;;10.20;6.20;;;28.40;71.00;;;;;;5120208;27;20088;-63
2023/06/18 12:27:09;;;;;;;7.15;6.20;;;28.30;71.60;;;;;;5123409;27;20046;-63
2023/06/18 12:29:39;;;;;;;7.07;6.07;;;28.20;72.90;;;;;;5129547;27;20438;-63
2023/06/18 12:32:08;;;;;;;6.82;6.18;;;28.20;73.10;;;;;;5127838;27;20039;-63
2023/06/18 12:34:35;;;;;;;6.38;5.78;;;28.10;72.00;;;;;;5119213;27;20503;-64